createdAt,value
2022-11-04T00:00:44.345Z,98160.00
2022-11-04T00:03:17.609Z,98160.00
2022-11-04T00:05:50.571Z,98146.00
2022-11-04T00:08:17.419Z,98150.00
2022-11-04T00:10:50.554Z,98153.00
2022-11-04T00:13:23.576Z,98155.00
2022-11-04T00:15:50.562Z,98159.00
2022-11-04T00:18:25.864Z,98157.00
2022-11-04T00:20:53.248Z,98156.00
2022-11-04T00:23:28.846Z,98143.00
2022-11-04T00:25:55.803Z,98150.00
2022-11-04T00:28:32.967Z,98151.00
2022-11-04T00:31:05.705Z,98138.00
2022-11-04T00:33:39.614Z,98142.00
2022-11-04T00:36:07.056Z,98126.00
2022-11-04T00:38:33.951Z,98121.00
2022-11-04T00:41:07.589Z,98110.00
2022-11-04T00:43:34.455Z,98104.00
2022-11-04T00:46:07.595Z,98097.00
2022-11-04T00:48:40.584Z,98084.00
2022-11-04T00:51:07.478Z,98080.00
2022-11-04T00:53:40.596Z,98078.00
2022-11-04T00:56:07.614Z,98075.00
2022-11-04T00:58:40.901Z,98081.00
2022-11-04T01:01:14.211Z,98066.00
2022-11-04T01:03:47.680Z,98058.00
2022-11-04T01:06:14.764Z,98056.00
2022-11-04T01:08:41.833Z,98066.00
2022-11-04T01:11:15.619Z,98054.00
2022-11-04T01:13:48.670Z,98054.00
2022-11-04T01:16:15.763Z,98052.00
2022-11-04T01:18:42.703Z,98054.00
2022-11-04T01:21:18.633Z,98063.00
2022-11-04T01:23:45.609Z,98057.00
2022-11-04T01:26:23.601Z,98043.00
2022-11-04T01:28:51.584Z,98043.00
2022-11-04T01:31:26.668Z,98035.00
2022-11-04T01:33:53.773Z,98023.00
2022-11-04T01:36:20.812Z,98025.00
2022-11-04T01:38:54.610Z,98017.00
2022-11-04T01:41:27.990Z,98018.00
2022-11-04T01:44:47.636Z,98028.00
2022-11-04T01:47:45.618Z,98023.00
2022-11-04T01:50:24.379Z,98015.00
2022-11-04T01:53:22.616Z,98010.00
2022-11-04T01:55:56.045Z,97997.00
2022-11-04T01:58:32.657Z,97988.00
2022-11-04T02:00:59.552Z,97991.00
2022-11-04T02:03:46.641Z,97987.00
2022-11-04T02:06:20.636Z,97988.00
2022-11-04T02:08:53.655Z,97969.00
2022-11-04T02:11:26.648Z,97963.00
2022-11-04T02:13:59.639Z,97963.00
2022-11-04T02:16:40.308Z,97937.00
2022-11-04T02:20:10.633Z,97946.00
2022-11-04T02:23:26.645Z,97967.00
2022-11-04T02:26:25.672Z,97967.00
2022-11-04T02:29:20.691Z,97962.00
2022-11-04T02:31:53.514Z,97960.00
2022-11-04T02:34:51.653Z,97945.00
2022-11-04T02:37:42.728Z,97921.00
2022-11-04T02:40:40.653Z,97916.00
2022-11-04T02:43:52.236Z,97928.00
2022-11-04T02:46:43.661Z,97932.00
2022-11-04T02:49:27.665Z,97919.00
2022-11-04T02:52:51.688Z,97908.00
2022-11-04T02:55:38.090Z,97879.00
2022-11-04T02:58:13.659Z,97866.00
2022-11-04T03:00:41.433Z,97848.00
2022-11-04T03:03:20.673Z,97845.00
2022-11-04T03:05:49.254Z,97856.00
2022-11-04T03:08:27.679Z,97868.00
2022-11-04T03:10:59.353Z,97875.00
2022-11-04T03:13:54.720Z,97874.00
2022-11-04T03:16:27.340Z,97875.00
2022-11-04T03:19:35.673Z,97877.00
2022-11-04T03:22:07.815Z,97871.00
2022-11-04T03:24:40.695Z,97879.00
2022-11-04T03:27:27.902Z,97871.00
2022-11-04T03:30:23.693Z,97871.00
2022-11-04T03:33:19.582Z,97872.00
2022-11-04T03:35:52.685Z,97880.00
2022-11-04T03:38:20.869Z,97893.00
2022-11-04T03:40:54.710Z,97887.00
2022-11-04T03:43:26.023Z,97897.00
2022-11-04T03:45:52.913Z,97893.00
2022-11-04T03:48:26.693Z,97896.00
2022-11-04T03:50:53.604Z,97886.00
2022-11-04T03:53:30.737Z,97898.00
2022-11-04T03:56:18.686Z,97898.00
2022-11-04T03:59:41.741Z,97888.00
2022-11-04T04:02:43.903Z,97894.00
2022-11-04T04:05:26.739Z,97886.00
2022-11-04T04:08:38.884Z,97894.00
2022-11-04T04:11:25.728Z,97879.00
2022-11-04T04:14:34.031Z,97897.00
2022-11-04T04:17:07.698Z,97895.00
2022-11-04T04:19:34.654Z,97901.00
2022-11-04T04:22:11.708Z,97899.00
2022-11-04T04:24:40.237Z,97900.00
2022-11-04T04:27:07.351Z,97892.00
2022-11-04T04:29:40.745Z,97905.00
2022-11-04T04:32:07.576Z,97894.00
2022-11-04T04:34:40.785Z,97896.00
2022-11-04T04:37:23.265Z,97905.00
2022-11-04T04:40:04.722Z,97903.00
2022-11-04T04:42:34.928Z,97912.00
2022-11-04T04:45:12.750Z,97917.00
2022-11-04T04:47:44.749Z,97918.00
2022-11-04T04:50:22.747Z,97913.00
2022-11-04T04:52:51.896Z,97932.00
2022-11-04T04:55:25.760Z,97934.00
2022-11-04T04:58:05.786Z,97924.00
2022-11-04T05:00:38.730Z,97929.00
2022-11-04T05:03:05.901Z,97923.00
2022-11-04T05:05:32.903Z,97931.00
2022-11-04T05:08:15.779Z,97923.00
2022-11-04T05:10:42.619Z,97920.00
2022-11-04T05:13:16.788Z,97932.00
2022-11-04T05:15:43.715Z,97921.00
2022-11-04T05:18:16.770Z,97924.00
2022-11-04T05:20:43.675Z,97927.00
2022-11-04T05:23:16.734Z,97914.00
2022-11-04T05:25:49.756Z,97909.00
2022-11-04T05:28:16.610Z,97925.00
2022-11-04T05:30:49.756Z,97915.00
2022-11-04T05:33:16.638Z,97933.00
2022-11-04T05:35:43.499Z,97930.00
2022-11-04T05:38:16.792Z,97922.00
2022-11-04T05:40:43.646Z,97939.00
2022-11-04T05:43:17.781Z,97942.00
2022-11-04T05:45:44.669Z,97942.00
2022-11-04T05:48:17.740Z,97943.00
2022-11-04T05:50:44.598Z,97950.00
2022-11-04T05:53:17.795Z,97936.00
2022-11-04T05:55:50.745Z,97945.00
2022-11-04T05:58:17.627Z,97934.00
2022-11-04T06:00:50.771Z,97950.00
2022-11-04T06:03:17.669Z,97958.00
2022-11-04T06:05:44.566Z,97963.00
2022-11-04T06:08:17.756Z,97967.00
2022-11-04T06:10:44.618Z,97959.00
2022-11-04T06:13:11.494Z,97959.00
2022-11-04T06:15:44.798Z,97962.00
2022-11-04T06:18:11.870Z,97969.00
2022-11-04T06:20:44.769Z,97967.00
2022-11-04T06:23:17.782Z,97972.00
2022-11-04T06:25:44.631Z,97979.00
2022-11-04T06:28:17.781Z,97964.00
2022-11-04T06:30:44.628Z,97962.00
2022-11-04T06:33:11.471Z,97973.00
2022-11-04T06:35:44.810Z,97968.00
2022-11-04T06:38:11.836Z,97951.00
2022-11-04T06:40:45.776Z,97966.00
2022-11-04T06:43:18.827Z,97969.00
2022-11-04T06:45:53.218Z,97972.00
2022-11-04T06:48:26.855Z,97971.00
2022-11-04T06:51:00.838Z,97949.00
2022-11-04T06:53:28.198Z,97976.00
2022-11-04T06:56:06.841Z,97966.00
2022-11-04T06:58:39.808Z,97968.00
2022-11-04T07:01:13.544Z,97970.00
2022-11-04T07:03:49.798Z,97970.00
2022-11-04T07:06:22.793Z,97957.00
2022-11-04T07:08:50.593Z,97949.00
2022-11-04T07:11:19.391Z,97960.00
2022-11-04T07:13:52.799Z,97954.00
2022-11-04T07:16:19.654Z,97967.00
2022-11-04T07:18:52.812Z,97969.00
2022-11-04T07:21:25.838Z,97971.00
2022-11-04T07:23:52.793Z,97968.00
2022-11-04T07:26:25.823Z,97960.00
2022-11-04T07:28:52.876Z,97951.00
2022-11-04T07:31:25.824Z,97963.00
2022-11-04T07:33:53.401Z,97967.00
2022-11-04T07:36:26.831Z,97980.00
2022-11-04T07:39:00.848Z,97965.00
2022-11-04T07:41:27.821Z,97960.00
2022-11-04T07:44:00.814Z,97943.00
2022-11-04T07:46:33.785Z,97967.00
2022-11-04T07:49:06.817Z,97963.00
2022-11-04T07:51:40.868Z,97946.00
2022-11-04T07:54:13.989Z,97936.00
2022-11-04T07:56:47.855Z,97933.00
2022-11-04T07:59:20.824Z,97927.00
2022-11-04T08:01:47.783Z,97938.00
2022-11-04T08:04:14.714Z,97936.00
2022-11-04T08:06:47.874Z,97939.00
2022-11-04T08:09:14.761Z,97938.00
2022-11-04T08:11:47.862Z,97937.00
2022-11-04T08:14:14.755Z,97956.00
2022-11-04T08:16:47.874Z,97963.00
2022-11-04T08:19:14.727Z,97940.00
2022-11-04T08:21:47.855Z,97956.00
2022-11-04T08:24:14.711Z,97953.00
2022-11-04T08:26:47.941Z,97953.00
2022-11-04T08:29:21.857Z,97946.00
2022-11-04T08:31:48.712Z,97954.00
2022-11-04T08:34:15.580Z,97926.00
2022-11-04T08:36:49.325Z,97947.00
2022-11-04T08:39:16.803Z,97941.00
2022-11-04T08:41:52.271Z,97936.00
2022-11-04T08:44:20.326Z,97959.00
2022-11-04T08:46:53.887Z,97959.00
2022-11-04T08:49:26.897Z,97936.00
2022-11-04T08:51:53.886Z,97936.00
2022-11-04T08:54:20.772Z,97950.00
2022-11-04T08:56:53.883Z,97956.00
2022-11-04T08:59:20.751Z,97938.00
2022-11-04T09:01:54.029Z,97959.00
2022-11-04T09:04:21.102Z,97968.00
2022-11-04T09:06:54.896Z,97963.00
2022-11-04T09:09:22.510Z,97952.00
2022-11-04T09:11:55.889Z,97950.00
2022-11-04T09:14:28.982Z,97946.00
2022-11-04T09:16:56.392Z,97964.00
2022-11-04T09:19:29.936Z,97978.00
2022-11-04T09:21:56.790Z,97968.00
2022-11-04T09:24:29.964Z,97966.00
2022-11-04T09:26:56.909Z,97965.00
2022-11-04T09:29:23.791Z,97950.00
2022-11-04T09:31:56.936Z,97958.00
2022-11-04T09:34:30.919Z,97942.00
2022-11-04T09:37:04.929Z,97947.00
2022-11-04T09:39:31.840Z,97931.00
2022-11-04T09:42:28.921Z,97934.00
2022-11-04T09:47:59.922Z,97932.00
2022-11-04T09:50:34.071Z,97933.00
2022-11-04T09:53:23.925Z,97912.00
2022-11-04T09:56:34.944Z,97928.00
2022-11-04T09:59:03.752Z,97932.00
2022-11-04T10:02:06.034Z,97923.00
2022-11-04T10:05:01.537Z,97911.00
2022-11-04T10:08:37.687Z,97920.00
2022-11-04T10:11:53.978Z,97930.00
2022-11-04T10:14:40.524Z,97931.00
2022-11-04T10:17:58.973Z,97935.00
2022-11-04T10:20:43.577Z,97921.00
2022-11-04T10:23:22.978Z,97922.00
2022-11-04T10:26:08.844Z,97921.00
2022-11-04T10:28:49.974Z,97914.00
2022-11-04T10:31:24.969Z,97918.00
2022-11-04T10:34:00.264Z,97897.00
2022-11-04T10:36:34.007Z,97897.00
2022-11-04T10:39:16.275Z,97906.00
2022-11-04T10:41:49.944Z,97895.00
2022-11-04T10:44:26.109Z,97885.00
2022-11-04T10:47:33.966Z,97893.00
2022-11-04T10:50:28.861Z,97896.00
2022-11-04T10:53:26.001Z,97882.00
2022-11-04T10:56:22.429Z,97874.00
2022-11-04T10:58:55.994Z,97871.00
2022-11-04T11:01:34.369Z,97866.00
2022-11-04T11:04:07.972Z,97850.00
2022-11-04T11:06:35.444Z,97854.00
2022-11-04T11:09:28.966Z,97855.00
2022-11-04T11:12:50.005Z,97862.00
2022-11-04T11:15:37.986Z,97863.00
2022-11-04T11:18:13.611Z,97864.00
2022-11-04T11:20:46.992Z,97863.00
2022-11-04T11:23:43.441Z,97849.00
2022-11-04T11:26:36.984Z,97857.00
2022-11-04T11:29:03.904Z,97853.00
2022-11-04T11:31:44.988Z,97845.00
2022-11-04T11:34:34.004Z,97845.00
2022-11-04T11:37:07.992Z,97849.00
2022-11-04T11:39:35.141Z,97842.00
2022-11-04T11:42:13.994Z,97823.00
2022-11-04T11:44:48.972Z,97817.00
2022-11-04T11:47:42.987Z,97811.00
2022-11-04T11:50:20.829Z,97809.00
2022-11-04T11:52:57.086Z,97811.00
2022-11-04T11:55:30.213Z,97811.00
2022-11-04T12:01:25.682Z,97803.00
2022-11-04T12:10:51.801Z,97805.00
2022-11-04T12:13:44.043Z,97810.00
2022-11-04T12:16:32.148Z,97815.00
2022-11-04T12:19:46.983Z,97816.00
2022-11-04T12:22:26.202Z,97818.00
2022-11-04T12:25:21.991Z,97806.00
2022-11-04T12:28:42.108Z,97801.00
2022-11-04T12:31:42.819Z,97798.00
2022-11-04T12:34:22.017Z,97789.00
2022-11-04T12:37:18.600Z,97789.00
2022-11-04T12:40:25.040Z,97778.00
2022-11-04T12:43:16.193Z,97783.00
2022-11-04T12:45:55.019Z,97785.00
2022-11-04T12:48:44.426Z,97788.00
2022-11-04T12:51:33.084Z,97787.00
2022-11-04T12:54:06.227Z,97783.00
2022-11-04T12:56:45.058Z,97759.00
2022-11-04T13:00:04.371Z,97777.00
2022-11-04T13:02:55.069Z,97761.00
2022-11-04T13:05:44.642Z,97771.00
2022-11-04T13:08:20.044Z,97768.00
2022-11-04T13:10:51.457Z,97769.00
2022-11-04T13:13:28.120Z,97762.00
2022-11-04T13:15:58.624Z,97761.00
2022-11-04T13:18:36.088Z,97759.00
2022-11-04T13:21:07.196Z,97749.00
2022-11-04T13:23:58.086Z,97754.00
2022-11-04T13:26:25.099Z,97743.00
2022-11-04T13:29:22.123Z,97750.00
2022-11-04T13:32:17.066Z,97748.00
2022-11-04T13:35:05.115Z,97751.00
2022-11-04T13:37:38.614Z,97742.00
2022-11-04T13:40:27.074Z,97743.00
2022-11-04T13:43:28.052Z,97751.00
2022-11-04T13:45:55.913Z,97746.00
2022-11-04T13:48:26.124Z,97747.00
2022-11-04T13:51:11.109Z,97747.00
2022-11-04T13:53:51.065Z,97744.00
2022-11-04T13:56:45.113Z,97746.00
2022-11-04T13:59:29.262Z,97750.00
2022-11-04T14:02:18.100Z,97742.00
2022-11-04T14:04:52.099Z,97750.00
2022-11-04T14:07:19.221Z,97746.00
2022-11-04T14:10:01.115Z,97745.00
2022-11-04T14:12:37.108Z,97753.00
2022-11-04T14:15:08.029Z,97723.00
2022-11-04T14:17:41.155Z,97745.00
2022-11-04T14:20:22.054Z,97722.00
2022-11-04T14:22:59.117Z,97737.00
2022-11-04T14:25:41.494Z,97735.00
2022-11-04T14:28:18.097Z,97731.00
2022-11-04T14:30:58.826Z,97732.00
2022-11-04T14:34:03.109Z,97732.00
2022-11-04T14:36:38.241Z,97727.00
2022-11-04T14:39:17.111Z,97729.00
2022-11-04T14:41:57.764Z,97729.00
2022-11-04T14:44:50.501Z,97723.00
2022-11-04T14:47:18.604Z,97725.00
2022-11-04T14:49:58.155Z,97732.00
2022-11-04T14:52:46.397Z,97724.00
2022-11-04T14:55:39.156Z,97726.00
2022-11-04T14:58:24.523Z,97733.00
2022-11-04T15:01:00.218Z,97732.00
2022-11-04T15:06:53.295Z,97729.00
2022-11-04T15:09:33.470Z,97719.00
2022-11-04T15:12:16.171Z,97737.00
2022-11-04T15:14:49.819Z,97705.00
2022-11-04T15:17:25.166Z,97715.00
2022-11-04T15:19:53.976Z,97717.00
2022-11-04T15:22:20.964Z,97723.00
2022-11-04T15:24:54.377Z,97724.00
2022-11-04T15:27:28.776Z,97720.00
2022-11-04T15:30:09.691Z,97729.00
2022-11-04T15:32:36.608Z,97730.00
2022-11-04T15:35:10.130Z,97727.00
2022-11-04T15:37:37.076Z,97727.00
2022-11-04T15:40:11.130Z,97731.00
2022-11-04T15:42:37.972Z,97728.00
2022-11-04T15:45:56.176Z,97733.00
2022-11-04T15:48:30.231Z,97731.00
2022-11-04T15:51:20.240Z,97715.00
2022-11-04T15:54:01.144Z,97737.00
2022-11-04T15:56:42.393Z,97744.00
2022-11-04T15:59:25.173Z,97752.00
2022-11-04T16:01:52.577Z,97749.00
2022-11-04T16:04:29.206Z,97745.00
2022-11-04T16:07:17.197Z,97753.00
2022-11-04T16:09:53.081Z,97749.00
2022-11-04T16:12:42.160Z,97746.00
2022-11-04T16:15:46.184Z,97766.00
2022-11-04T16:18:29.949Z,97752.00
2022-11-04T16:21:11.212Z,97772.00
2022-11-04T16:23:47.000Z,97771.00
2022-11-04T16:26:20.165Z,97782.00
2022-11-04T16:28:47.161Z,97771.00
2022-11-04T16:31:43.177Z,97780.00
2022-11-04T16:34:19.230Z,97777.00
2022-11-04T16:36:52.180Z,97778.00
2022-11-04T16:39:19.082Z,97782.00
2022-11-04T16:41:52.196Z,97775.00
2022-11-04T16:44:21.215Z,97777.00
2022-11-04T16:46:55.249Z,97786.00
2022-11-04T16:49:22.217Z,97770.00
2022-11-04T16:52:07.182Z,97777.00
2022-11-04T16:54:34.115Z,97771.00
2022-11-04T16:57:07.229Z,97770.00
2022-11-04T16:59:34.158Z,97760.00
2022-11-04T17:02:07.341Z,97773.00
2022-11-04T17:04:34.240Z,97774.00
2022-11-04T17:07:15.246Z,97768.00
2022-11-04T17:09:42.143Z,97759.00
2022-11-04T17:12:15.182Z,97765.00
2022-11-04T17:14:48.883Z,97745.00
2022-11-04T17:17:22.194Z,97752.00
2022-11-04T17:19:49.117Z,97742.00
2022-11-04T17:22:22.201Z,97749.00
2022-11-04T17:24:49.048Z,97750.00
2022-11-04T17:27:16.057Z,97766.00
2022-11-04T17:29:49.243Z,97770.00
2022-11-04T17:32:16.140Z,97766.00
2022-11-04T17:34:49.225Z,97772.00
2022-11-04T17:37:16.156Z,97779.00
2022-11-04T17:39:49.222Z,97782.00
2022-11-04T17:42:16.102Z,97797.00
2022-11-04T17:44:49.216Z,97784.00
2022-11-04T17:47:16.124Z,97775.00
2022-11-04T17:49:49.194Z,97782.00
2022-11-04T17:52:16.060Z,97802.00
2022-11-04T17:54:49.224Z,97807.00
2022-11-04T17:57:16.048Z,97819.00
2022-11-04T17:59:42.945Z,97820.00
2022-11-04T18:02:16.360Z,97821.00
2022-11-04T18:04:47.251Z,97837.00
2022-11-04T18:07:20.247Z,97848.00
2022-11-04T18:09:47.105Z,97853.00
2022-11-04T18:12:20.382Z,97844.00
2022-11-04T18:14:47.324Z,97848.00
2022-11-04T18:17:21.230Z,97847.00
2022-11-04T18:19:48.239Z,97836.00
2022-11-04T18:22:21.474Z,97838.00
2022-11-04T18:24:55.338Z,97815.00
2022-11-04T18:27:29.275Z,97822.00
2022-11-04T18:29:56.162Z,97814.00
2022-11-04T18:32:29.281Z,97815.00
2022-11-04T18:35:02.217Z,97801.00
2022-11-04T18:37:29.260Z,97802.00
2022-11-04T18:40:02.255Z,97796.00
2022-11-04T18:42:29.129Z,97806.00
2022-11-04T18:45:02.256Z,97805.00
2022-11-04T18:47:29.157Z,97819.00
2022-11-04T18:50:02.247Z,97819.00
2022-11-04T18:52:29.139Z,97827.00
2022-11-04T18:55:02.239Z,97825.00
2022-11-04T18:57:29.139Z,97834.00
2022-11-04T19:00:02.265Z,97834.00
2022-11-04T19:02:29.220Z,97840.00
2022-11-04T19:05:02.272Z,97848.00
2022-11-04T19:07:29.162Z,97845.00
2022-11-04T19:10:02.261Z,97848.00
2022-11-04T19:12:29.154Z,97844.00
2022-11-04T19:15:02.297Z,97853.00
2022-11-04T19:17:29.190Z,97852.00
2022-11-04T19:20:06.819Z,97854.00
2022-11-04T19:22:38.104Z,97874.00
2022-11-04T19:25:12.289Z,97876.00
2022-11-04T19:27:39.187Z,97879.00
2022-11-04T19:30:13.282Z,97887.00
2022-11-04T19:32:40.117Z,97890.00
2022-11-04T19:35:13.295Z,97881.00
2022-11-04T19:37:40.189Z,97890.00
2022-11-04T19:40:14.317Z,97891.00
2022-11-04T19:42:41.181Z,97905.00
2022-11-04T19:45:15.303Z,97899.00
2022-11-04T19:47:42.187Z,97898.00
2022-11-04T19:50:16.348Z,97904.00
2022-11-04T19:52:43.281Z,97910.00
2022-11-04T19:55:16.265Z,97916.00
2022-11-04T19:57:49.286Z,97917.00
2022-11-04T20:00:16.286Z,97912.00
2022-11-04T20:02:50.321Z,97922.00
2022-11-04T20:05:17.270Z,97919.00
2022-11-04T20:07:50.298Z,97926.00
2022-11-04T20:10:17.215Z,97926.00
2022-11-04T20:12:50.307Z,97928.00
2022-11-04T20:15:17.181Z,97939.00
2022-11-04T20:17:44.059Z,97933.00
2022-11-04T20:20:17.294Z,97946.00
2022-11-04T20:22:50.320Z,97945.00
2022-11-04T20:25:17.169Z,97947.00
2022-11-04T20:27:50.315Z,97958.00
2022-11-04T20:30:17.242Z,97969.00
2022-11-04T20:32:50.302Z,97961.00
2022-11-04T20:35:17.290Z,97963.00
2022-11-04T20:37:50.318Z,97959.00
2022-11-04T20:40:17.450Z,97973.00
2022-11-04T20:42:44.402Z,97973.00
2022-11-04T20:45:18.335Z,97981.00
2022-11-04T20:47:45.975Z,97973.00
2022-11-04T20:50:19.342Z,97970.00
2022-11-04T20:52:46.309Z,97965.00
2022-11-04T20:55:19.330Z,97971.00
2022-11-04T20:57:46.273Z,97981.00
2022-11-04T21:00:20.345Z,97988.00
2022-11-04T21:02:47.305Z,97998.00
2022-11-04T21:05:21.345Z,98003.00
2022-11-04T21:07:48.194Z,97999.00
2022-11-04T21:10:21.314Z,98015.00
2022-11-04T21:12:48.169Z,98004.00
2022-11-04T21:15:21.360Z,97998.00
2022-11-04T21:17:48.187Z,98010.00
2022-11-04T21:20:15.183Z,98015.00
2022-11-04T21:22:48.375Z,98014.00
2022-11-04T21:25:15.318Z,97990.00
2022-11-04T21:27:48.362Z,98003.00
2022-11-04T21:30:15.237Z,98013.00
2022-11-04T21:32:48.364Z,98010.00
2022-11-04T21:35:21.383Z,98024.00
2022-11-04T21:37:48.222Z,98034.00
2022-11-04T21:40:21.405Z,98028.00
2022-11-04T21:42:54.342Z,98033.00
2022-11-04T21:45:27.343Z,98045.00
2022-11-04T21:48:00.369Z,98042.00
2022-11-04T21:50:27.216Z,98041.00
2022-11-04T21:53:00.361Z,98031.00
2022-11-04T21:55:27.232Z,98050.00
2022-11-04T21:58:00.377Z,98041.00
2022-11-04T22:00:33.400Z,98054.00
2022-11-04T22:03:06.392Z,98056.00
2022-11-04T22:05:39.384Z,98061.00
2022-11-04T22:08:13.386Z,98076.00
2022-11-04T22:10:46.366Z,98077.00
2022-11-04T22:13:19.405Z,98079.00
2022-11-04T22:15:46.258Z,98100.00
2022-11-04T22:18:13.103Z,98106.00
2022-11-04T22:20:46.386Z,98120.00
2022-11-04T22:23:13.445Z,98125.00
2022-11-04T22:25:50.145Z,98132.00
2022-11-04T22:28:17.448Z,98142.00
2022-11-04T22:30:50.349Z,98141.00
2022-11-04T22:33:17.227Z,98147.00
2022-11-04T22:35:53.375Z,98148.00
2022-11-04T22:38:20.245Z,98145.00
2022-11-04T22:41:01.377Z,98160.00
2022-11-04T22:43:28.283Z,98158.00
2022-11-04T22:46:02.377Z,98171.00
2022-11-04T22:48:35.414Z,98170.00
2022-11-04T22:51:02.317Z,98166.00
2022-11-04T22:53:29.149Z,98186.00
2022-11-04T22:56:06.382Z,98194.00
2022-11-04T22:58:39.404Z,98192.00
2022-11-04T23:01:21.486Z,98217.00
2022-11-04T23:03:57.470Z,98217.00
2022-11-04T23:06:30.396Z,98214.00
2022-11-04T23:09:00.469Z,98219.00
2022-11-04T23:11:34.474Z,98217.00
2022-11-04T23:14:01.410Z,98222.00
2022-11-04T23:16:34.394Z,98224.00
2022-11-04T23:19:01.238Z,98215.00
2022-11-04T23:21:34.423Z,98224.00
2022-11-04T23:24:01.295Z,98235.00
2022-11-04T23:26:34.420Z,98228.00
2022-11-04T23:29:01.317Z,98229.00
2022-11-04T23:31:34.400Z,98235.00
2022-11-04T23:34:01.307Z,98228.00
2022-11-04T23:36:34.397Z,98226.00
2022-11-04T23:39:07.427Z,98233.00
2022-11-04T23:41:34.288Z,98234.00
2022-11-04T23:44:07.404Z,98239.00
2022-11-04T23:46:39.371Z,98240.00
2022-11-04T23:49:06.446Z,98244.00
2022-11-04T23:51:39.456Z,98256.00
2022-11-04T23:54:14.532Z,98262.00
2022-11-04T23:56:41.379Z,98261.00
2022-11-04T23:59:14.222Z,98239.00
